createdAt,value
2019-05-14T00:05:53.288Z,103075.16
2019-05-14T00:11:59.160Z,103065.62
2019-05-14T00:18:04.965Z,103081.02
2019-05-14T00:24:11.504Z,103074.10
2019-05-14T00:30:17.909Z,103065.02
2019-05-14T00:36:24.616Z,103058.33
2019-05-14T00:42:31.864Z,103060.37
2019-05-14T00:48:39.263Z,103059.34
2019-05-14T00:54:45.055Z,103065.22
2019-05-14T01:00:52.551Z,103081.73
2019-05-14T01:06:58.890Z,103076.00
2019-05-14T01:13:04.999Z,103063.06
2019-05-14T01:19:12.409Z,103061.70
2019-05-14T01:25:18.429Z,103052.70
2019-05-14T01:31:24.233Z,103050.32
2019-05-14T01:37:31.143Z,103047.25
2019-05-14T01:43:37.634Z,103041.62
2019-05-14T01:49:43.430Z,103033.44
2019-05-14T01:55:49.161Z,103027.76
2019-05-14T02:01:54.910Z,103023.71
2019-05-14T02:08:01.882Z,103026.73
2019-05-14T02:14:07.918Z,103006.92
2019-05-14T02:20:13.651Z,103026.01
2019-05-14T02:26:21.909Z,103015.38
2019-05-14T02:32:29.738Z,103019.82
2019-05-14T02:38:34.789Z,103019.82
2019-05-14T02:44:41.151Z,103017.23
2019-05-14T02:50:49.381Z,103013.09
2019-05-14T02:56:54.803Z,103017.59
2019-05-14T03:03:00.817Z,103014.91
2019-05-14T03:09:09.607Z,103013.05
2019-05-14T03:15:16.088Z,103009.30
2019-05-14T03:21:22.022Z,103024.80
2019-05-14T03:27:30.443Z,103032.21
2019-05-14T03:33:35.311Z,103023.48
2019-05-14T03:39:41.154Z,103017.52
2019-05-14T03:45:49.552Z,103021.04
2019-05-14T03:51:54.663Z,103012.55
2019-05-14T03:58:00.963Z,103011.10
2019-05-14T04:04:09.967Z,103010.98
2019-05-14T04:10:14.510Z,103003.45
2019-05-14T04:16:24.237Z,103010.53
2019-05-14T04:22:33.829Z,102996.87
2019-05-14T04:28:41.871Z,102998.12
2019-05-14T04:34:49.861Z,102999.99
2019-05-14T04:40:55.453Z,102998.80
2019-05-14T04:47:21.620Z,102999.72
2019-05-14T04:53:10.331Z,102997.73
2019-05-14T04:59:19.099Z,102997.09
2019-05-14T05:05:23.668Z,102993.78
2019-05-14T05:11:29.676Z,103002.20
2019-05-14T05:17:44.249Z,102997.38
2019-05-14T05:23:43.186Z,102999.78
2019-05-14T05:29:49.160Z,102998.17
2019-05-14T05:35:55.121Z,102988.58
2019-05-14T05:42:01.422Z,102983.99
2019-05-14T05:48:08.409Z,102991.33
2019-05-14T05:54:14.591Z,102985.91
2019-05-14T06:00:39.832Z,102979.67
2019-05-14T06:06:44.992Z,102970.39
2019-05-14T06:12:52.685Z,102971.92
2019-05-14T06:18:58.961Z,102960.66
2019-05-14T06:25:10.533Z,102961.28
2019-05-14T06:31:13.259Z,102953.41
2019-05-14T06:37:19.374Z,102940.66
2019-05-14T06:43:28.852Z,102947.42
2019-05-14T06:49:38.339Z,102943.74
2019-05-14T06:55:43.551Z,102944.79
2019-05-14T07:01:49.487Z,102941.69
2019-05-14T07:07:55.903Z,102931.78
2019-05-14T07:14:02.688Z,102931.98
2019-05-14T07:20:11.315Z,102934.66
2019-05-14T07:26:19.330Z,102925.34
2019-05-14T07:32:24.622Z,102929.02
2019-05-14T07:38:30.716Z,102919.60
2019-05-14T07:44:39.087Z,102924.06
2019-05-14T07:50:51.235Z,102918.73
2019-05-14T07:56:53.504Z,102904.47
2019-05-14T08:02:59.290Z,102902.47
2019-05-14T08:09:08.632Z,102895.25
2019-05-14T08:15:19.994Z,102907.02
2019-05-14T08:21:23.320Z,102901.67
2019-05-14T08:27:31.035Z,102895.16
2019-05-14T08:33:39.445Z,102895.71
2019-05-14T08:39:44.900Z,102897.47
2019-05-14T08:45:50.693Z,102899.05
2019-05-14T08:51:59.363Z,102902.62
2019-05-14T08:58:04.501Z,102891.06
2019-05-14T09:04:10.351Z,102885.77
2019-05-14T09:10:19.067Z,102870.47
2019-05-14T09:16:38.477Z,102852.52
2019-05-14T09:22:31.271Z,102850.30
2019-05-14T09:28:39.229Z,102832.33
2019-05-14T09:34:48.437Z,102821.45
2019-05-14T09:41:06.910Z,102827.08
2019-05-14T09:47:00.782Z,102826.91
2019-05-14T09:53:09.765Z,102816.55
2019-05-14T09:59:14.500Z,102815.44
2019-05-14T10:05:20.283Z,102818.56
2019-05-14T10:11:28.631Z,102816.16
2019-05-14T10:17:33.724Z,102805.85
2019-05-14T10:23:39.449Z,102818.38
2019-05-14T10:29:45.389Z,102823.08
2019-05-14T10:35:51.304Z,102822.00
2019-05-14T10:41:57.354Z,102816.69
2019-05-14T10:48:03.327Z,102804.70
2019-05-14T10:54:20.958Z,102777.27
2019-05-14T11:00:18.636Z,102756.52
2019-05-14T11:06:24.654Z,102755.61
2019-05-14T11:12:30.771Z,102749.05
2019-05-14T11:18:39.592Z,102749.03
2019-05-14T11:24:44.238Z,102743.61
2019-05-14T11:30:50.051Z,102746.67
2019-05-14T11:36:55.797Z,102739.80
2019-05-14T11:43:01.545Z,102725.94
2019-05-14T11:49:08.852Z,102720.28
2019-05-14T11:55:15.449Z,102700.84
2019-05-14T12:01:21.234Z,102698.71
2019-05-14T12:07:28.096Z,102695.17
2019-05-14T12:13:34.407Z,102679.66
2019-05-14T12:19:43.516Z,102655.77
2019-05-14T12:25:49.568Z,102646.40
2019-05-14T12:31:55.313Z,102636.22
2019-05-14T12:38:01.143Z,102628.66
2019-05-14T12:44:09.379Z,102634.91
2019-05-14T12:50:14.435Z,102644.58
2019-05-14T12:56:20.217Z,102635.31
2019-05-14T13:02:25.948Z,102628.55
2019-05-14T13:08:31.751Z,102616.03
2019-05-14T13:14:39.410Z,102612.46
2019-05-14T13:20:45.113Z,102607.22
2019-05-14T13:26:50.937Z,102601.92
2019-05-14T13:32:59.076Z,102585.27
2019-05-14T13:39:08.977Z,102569.45
2019-05-14T13:45:14.211Z,102566.57
2019-05-14T13:51:20.113Z,102568.02
2019-05-14T13:57:28.544Z,102556.80
2019-05-14T14:03:33.709Z,102538.83
2019-05-14T14:09:39.794Z,102543.01
2019-05-14T14:15:45.584Z,102530.74
2019-05-14T14:21:51.458Z,102521.21
2019-05-14T14:28:00.383Z,102515.91
2019-05-14T14:34:04.983Z,102516.70
2019-05-14T14:40:11.476Z,102498.79
2019-05-14T14:46:19.624Z,102498.14
2019-05-14T14:52:25.025Z,102498.83
2019-05-14T14:58:30.851Z,102484.08
2019-05-14T15:04:39.541Z,102476.36
2019-05-14T15:10:44.798Z,102458.39
2019-05-14T15:16:51.551Z,102461.53
2019-05-14T15:22:59.977Z,102454.03
2019-05-14T15:29:05.172Z,102446.67
2019-05-14T15:35:11.535Z,102446.01
2019-05-14T15:41:20.162Z,102440.88
2019-05-14T15:47:25.128Z,102442.12
2019-05-14T15:53:31.263Z,102426.36
2019-05-14T15:59:39.200Z,102401.86
2019-05-14T16:05:44.560Z,102414.81
2019-05-14T16:11:50.337Z,102427.66
2019-05-14T16:18:08.215Z,102418.09
2019-05-14T16:24:03.783Z,102412.87
2019-05-14T16:30:10.440Z,102399.30
2019-05-14T16:36:18.448Z,102395.28
2019-05-14T16:42:25.242Z,102397.42
2019-05-14T16:48:31.510Z,102403.55
2019-05-14T16:54:39.474Z,102405.34
2019-05-14T17:00:45.055Z,102411.30
2019-05-14T17:06:50.882Z,102403.73
2019-05-14T17:13:00.528Z,102406.73
2019-05-14T17:19:04.251Z,102408.50
2019-05-14T17:25:10.608Z,102404.44
2019-05-14T17:31:18.787Z,102413.84
2019-05-14T17:37:24.186Z,102406.14
2019-05-14T17:43:30.054Z,102401.88
2019-05-14T17:49:35.803Z,102389.67
2019-05-14T17:55:47.093Z,102388.84
2019-05-14T18:01:49.134Z,102393.45
2019-05-14T18:07:54.920Z,102391.73
2019-05-14T18:14:00.943Z,102396.28
2019-05-14T18:20:08.372Z,102397.73
2019-05-14T18:26:14.604Z,102390.26
2019-05-14T18:32:20.564Z,102388.64
2019-05-14T18:38:28.898Z,102388.19
2019-05-14T18:44:33.939Z,102391.74
2019-05-14T18:50:40.011Z,102390.45
2019-05-14T18:56:48.925Z,102389.13
2019-05-14T19:02:54.893Z,102389.59
2019-05-14T19:09:00.817Z,102382.05
2019-05-14T19:15:08.774Z,102379.85
2019-05-14T19:21:14.936Z,102382.48
2019-05-14T19:27:20.944Z,102373.17
2019-05-14T19:33:28.803Z,102373.13
2019-05-14T19:39:34.731Z,102377.95
2019-05-14T19:45:40.598Z,102385.86
2019-05-14T19:51:48.312Z,102385.32
2019-05-14T19:57:53.916Z,102389.22
2019-05-14T20:04:00.538Z,102386.03
2019-05-14T20:10:08.911Z,102390.39
2019-05-14T20:16:14.861Z,102388.98
2019-05-14T20:22:21.230Z,102377.34
2019-05-14T20:28:27.056Z,102384.09
2019-05-14T20:34:32.872Z,102381.58
2019-05-14T20:40:38.609Z,102384.91
2019-05-14T20:46:44.622Z,102383.88
2019-05-14T20:52:50.401Z,102374.83
2019-05-14T20:58:56.270Z,102375.13
2019-05-14T21:05:04.692Z,102373.02
2019-05-14T21:11:09.652Z,102369.61
2019-05-14T21:17:15.593Z,102365.48
2019-05-14T21:23:21.523Z,102367.01
2019-05-14T21:29:30.394Z,102356.12
2019-05-14T21:35:38.736Z,102368.31
2019-05-14T21:41:44.201Z,102365.87
2019-05-14T21:47:49.967Z,102367.26
2019-05-14T21:53:55.753Z,102364.58
2019-05-14T22:00:01.931Z,102362.31
2019-05-14T22:06:08.853Z,102362.95
2019-05-14T22:12:14.937Z,102367.44
2019-05-14T22:18:21.044Z,102367.77
2019-05-14T22:24:28.719Z,102370.34
2019-05-14T22:30:34.599Z,102360.34
2019-05-14T22:36:40.528Z,102352.56
2019-05-14T22:42:46.511Z,102352.34
2019-05-14T22:48:52.318Z,102345.05
2019-05-14T22:54:58.688Z,102345.97
2019-05-14T23:01:14.350Z,102342.05
2019-05-14T23:07:12.442Z,102340.83
2019-05-14T23:13:18.686Z,102340.39
2019-05-14T23:19:25.253Z,102345.66
2019-05-14T23:25:31.225Z,102339.91
2019-05-14T23:31:38.436Z,102336.41
2019-05-14T23:37:44.501Z,102340.39
2019-05-14T23:43:50.542Z,102339.51
2019-05-14T23:49:58.426Z,102336.45
2019-05-14T23:56:04.194Z,102324.88
